Lindenhurst, Illinois
Current Conditions -  °F | °C
As of 7:55 PM on Saturday 20 Dec 2014 (Local Time) from KUGN Reporting Station
Overcast Overcast  
Wind Chill: 30°   Ceiling: 6500
Heat Index: 30°   Visibility: 7mi
Dew Point: 24°   Wind: 0mph
Humidity: 79%   Direction: NA
Pressure: 30.24"   Gusts: NA
Location:  42.4132°N, 88.0615°W
Report Text: KUGN 210155Z AUTO 00000KT 7SM FEW050 OVC065 M01/M04 A3024 RMK AO2 SLP255 T10111044
Loading
Personal Weather Stations






























Interactive Weather Map New forecast layout! Learn more

10-Day Weather Forecast

Advertisements
Track Severe Weather on mobile